createdAt,value
2023-03-16T00:02:10.998Z,65.80
2023-03-16T00:04:39.643Z,65.70
2023-03-16T00:07:09.021Z,65.90
2023-03-16T00:09:40.784Z,66.00
2023-03-16T00:12:15.545Z,66.30
2023-03-16T00:14:48.758Z,66.30
2023-03-16T00:17:19.850Z,66.30
2023-03-16T00:19:49.009Z,66.70
2023-03-16T00:22:17.266Z,66.50
2023-03-16T00:24:45.662Z,66.40
2023-03-16T00:27:15.760Z,66.50
2023-03-16T00:29:47.893Z,66.90
2023-03-16T00:32:17.726Z,66.90
2023-03-16T00:34:47.213Z,67.80
2023-03-16T00:37:17.322Z,67.40
2023-03-16T00:39:46.869Z,67.50
2023-03-16T00:42:19.228Z,67.50
2023-03-16T00:44:48.435Z,67.60
2023-03-16T00:47:16.639Z,67.60
2023-03-16T00:49:45.941Z,67.70
2023-03-16T00:52:15.531Z,67.90
2023-03-16T00:54:44.076Z,68.20
2023-03-16T00:57:13.757Z,68.30
2023-03-16T00:59:42.969Z,68.40
2023-03-16T01:02:13.569Z,68.40
2023-03-16T01:04:42.883Z,68.50
2023-03-16T01:07:12.903Z,68.60
2023-03-16T01:09:41.215Z,68.70
2023-03-16T01:12:11.789Z,68.50
2023-03-16T01:14:40.164Z,69.00
2023-03-16T01:17:09.676Z,69.10
2023-03-16T01:19:39.341Z,69.30
2023-03-16T01:22:07.490Z,69.20
2023-03-16T01:24:36.222Z,69.30
2023-03-16T01:27:05.276Z,69.50
2023-03-16T01:29:33.663Z,69.50
2023-03-16T01:32:01.944Z,69.70
2023-03-16T01:34:29.900Z,70.10
2023-03-16T01:36:59.127Z,69.90
2023-03-16T01:39:27.229Z,70.40
2023-03-16T01:41:55.170Z,70.20
2023-03-16T01:44:30.638Z,70.00
2023-03-16T01:46:58.926Z,70.50
2023-03-16T01:49:32.655Z,70.50
2023-03-16T01:52:05.423Z,70.60
2023-03-16T01:54:36.289Z,70.80
2023-03-16T01:57:09.503Z,70.70
2023-03-16T01:59:40.766Z,70.80
2023-03-16T02:02:10.060Z,71.00
2023-03-16T02:04:44.114Z,71.00
2023-03-16T02:07:16.910Z,71.30
2023-03-16T02:09:51.646Z,71.30
2023-03-16T02:12:20.336Z,71.50
2023-03-16T02:14:49.570Z,71.20
2023-03-16T02:17:20.006Z,71.30
2023-03-16T02:19:57.914Z,71.50
2023-03-16T02:22:28.007Z,71.70
2023-03-16T02:24:57.866Z,71.70
2023-03-16T02:27:32.287Z,71.70
2023-03-16T02:30:11.616Z,71.90
2023-03-16T02:32:41.564Z,72.10
2023-03-16T02:35:11.185Z,72.40
2023-03-16T02:37:39.032Z,72.30
2023-03-16T02:40:20.785Z,72.20
2023-03-16T02:42:54.713Z,72.90
2023-03-16T02:45:27.274Z,72.80
2023-03-16T02:47:56.058Z,73.00
2023-03-16T02:50:23.900Z,72.90
2023-03-16T02:52:51.776Z,73.00
2023-03-16T02:55:19.943Z,73.20
2023-03-16T02:57:47.798Z,73.30
2023-03-16T03:00:18.247Z,73.40
2023-03-16T03:02:47.665Z,73.60
2023-03-16T03:05:15.616Z,73.60
2023-03-16T03:07:43.989Z,73.60
2023-03-16T03:10:12.783Z,73.30
2023-03-16T03:12:40.577Z,73.70
2023-03-16T03:15:09.753Z,73.80
2023-03-16T03:17:37.657Z,73.90
2023-03-16T03:20:13.936Z,73.70
2023-03-16T03:22:41.966Z,74.10
2023-03-16T03:25:10.308Z,74.10
2023-03-16T03:27:38.689Z,74.30
2023-03-16T03:30:08.174Z,74.30
2023-03-16T03:32:36.646Z,74.60
2023-03-16T03:35:06.498Z,74.50
2023-03-16T03:37:34.579Z,74.80
2023-03-16T03:40:10.370Z,74.60
2023-03-16T03:42:38.642Z,75.10
2023-03-16T03:45:07.880Z,74.90
2023-03-16T03:47:36.149Z,75.50
2023-03-16T03:50:04.333Z,75.40
2023-03-16T03:52:33.685Z,75.50
2023-03-16T03:55:01.492Z,75.80
2023-03-16T03:57:29.552Z,76.00
2023-03-16T03:59:57.446Z,76.00
2023-03-16T04:02:25.358Z,76.20
2023-03-16T04:04:53.447Z,76.40
2023-03-16T04:07:21.344Z,76.50
2023-03-16T04:09:51.666Z,76.60
2023-03-16T04:12:19.545Z,77.40
2023-03-16T04:14:47.386Z,76.70
2023-03-16T04:17:15.415Z,77.00
2023-03-16T04:19:44.077Z,77.00
2023-03-16T04:22:13.056Z,77.00
2023-03-16T04:24:43.904Z,77.20
2023-03-16T04:27:13.282Z,77.40
2023-03-16T04:29:41.174Z,77.40
2023-03-16T04:32:09.762Z,77.50
2023-03-16T04:34:38.490Z,77.40
2023-03-16T04:37:06.550Z,77.70
2023-03-16T04:39:34.455Z,77.70
2023-03-16T04:42:02.661Z,77.90
2023-03-16T04:44:32.119Z,78.20
2023-03-16T04:47:00.510Z,78.10
2023-03-16T04:49:28.417Z,78.20
2023-03-16T04:51:57.642Z,78.30
2023-03-16T04:54:25.489Z,78.40
2023-03-16T04:56:53.447Z,78.30
2023-03-16T04:59:21.278Z,78.40
2023-03-16T05:01:50.955Z,78.80
2023-03-16T05:04:19.731Z,78.50
2023-03-16T05:06:47.808Z,78.40
2023-03-16T05:09:15.696Z,78.50
2023-03-16T05:11:43.951Z,78.60
2023-03-16T05:14:11.845Z,79.20
2023-03-16T05:16:39.666Z,78.60
2023-03-16T05:19:09.001Z,78.60
2023-03-16T05:21:38.610Z,78.70
2023-03-16T05:24:06.985Z,78.70
2023-03-16T05:26:35.171Z,79.00
2023-03-16T05:29:02.985Z,79.00
2023-03-16T05:31:32.728Z,79.00
2023-03-16T05:34:02.560Z,78.90
2023-03-16T05:36:32.899Z,79.10
2023-03-16T05:39:00.745Z,79.10
2023-03-16T05:41:28.618Z,79.10
2023-03-16T05:43:56.511Z,79.20
2023-03-16T05:46:24.411Z,79.20
2023-03-16T05:48:52.250Z,79.20
2023-03-16T05:51:20.137Z,79.60
2023-03-16T05:53:49.669Z,79.70
2023-03-16T05:56:17.533Z,79.80
2023-03-16T05:58:45.608Z,79.80
2023-03-16T06:01:14.007Z,79.90
2023-03-16T06:03:42.789Z,79.90
2023-03-16T06:06:10.964Z,80.00
2023-03-16T06:08:39.378Z,80.10
2023-03-16T06:11:08.823Z,80.10
2023-03-16T06:13:36.704Z,80.30
2023-03-16T06:16:06.159Z,80.30
2023-03-16T06:18:34.446Z,80.50
2023-03-16T06:21:02.286Z,80.50
2023-03-16T06:23:30.617Z,80.30
2023-03-16T06:25:59.612Z,80.30
2023-03-16T06:28:28.914Z,80.30
2023-03-16T06:30:57.985Z,80.40
2023-03-16T06:33:28.835Z,80.30
2023-03-16T06:35:56.787Z,80.40
2023-03-16T06:38:24.644Z,80.30
2023-03-16T06:40:53.806Z,80.40
2023-03-16T06:43:22.074Z,81.10
2023-03-16T06:45:51.341Z,80.90
2023-03-16T06:48:19.174Z,80.90
2023-03-16T06:50:47.386Z,81.00
2023-03-16T06:53:15.246Z,80.90
2023-03-16T06:55:46.044Z,81.10
2023-03-16T06:58:14.218Z,81.30
2023-03-16T07:00:42.631Z,80.90
2023-03-16T07:03:12.248Z,81.10
2023-03-16T07:05:40.209Z,81.30
2023-03-16T07:08:08.126Z,81.30
2023-03-16T07:10:36.283Z,81.10
2023-03-16T07:13:04.485Z,81.10
2023-03-16T07:15:32.440Z,81.30
2023-03-16T07:18:00.825Z,80.90
2023-03-16T07:20:32.713Z,81.00
2023-03-16T07:23:00.682Z,81.00
2023-03-16T07:25:28.576Z,80.90
2023-03-16T07:27:56.382Z,81.00
2023-03-16T07:30:25.258Z,81.30
2023-03-16T07:32:53.606Z,81.50
2023-03-16T07:35:21.614Z,81.20
2023-03-16T07:37:51.486Z,81.60
2023-03-16T07:40:19.546Z,81.70
2023-03-16T07:42:47.494Z,81.80
2023-03-16T07:45:17.713Z,82.00
2023-03-16T07:47:48.786Z,81.80
2023-03-16T07:50:19.182Z,81.80
2023-03-16T07:52:47.221Z,81.90
2023-03-16T07:55:16.753Z,82.10
2023-03-16T07:57:47.866Z,82.10
2023-03-16T08:00:16.361Z,82.30
2023-03-16T08:02:45.322Z,82.20
2023-03-16T08:05:15.391Z,82.30
2023-03-16T08:07:43.914Z,82.00
2023-03-16T08:10:12.538Z,82.20
2023-03-16T08:12:41.846Z,82.20
2023-03-16T08:15:11.785Z,82.60
2023-03-16T08:17:41.697Z,82.80
2023-03-16T08:20:13.962Z,82.70
2023-03-16T08:22:42.149Z,83.20
2023-03-16T08:25:11.353Z,83.30
2023-03-16T08:27:41.796Z,83.30
2023-03-16T08:30:13.909Z,83.70
2023-03-16T08:32:43.072Z,83.30
2023-03-16T08:35:14.475Z,82.70
2023-03-16T08:37:43.859Z,83.30
2023-03-16T08:40:15.820Z,82.80
2023-03-16T08:42:45.694Z,82.70
2023-03-16T08:45:14.777Z,82.30
2023-03-16T08:47:43.824Z,82.10
2023-03-16T08:50:15.470Z,81.90
2023-03-16T08:52:44.973Z,81.90
2023-03-16T08:55:13.555Z,82.50
2023-03-16T08:57:41.923Z,81.60
2023-03-16T09:00:14.846Z,81.60
2023-03-16T09:02:44.172Z,81.60
2023-03-16T09:05:14.618Z,81.60
2023-03-16T09:07:43.808Z,81.50
2023-03-16T09:10:16.050Z,81.40
2023-03-16T09:12:45.074Z,82.10
2023-03-16T09:15:14.877Z,80.90
2023-03-16T09:17:44.998Z,81.10
2023-03-16T09:20:22.465Z,80.90
2023-03-16T09:22:54.528Z,80.80
2023-03-16T09:25:22.494Z,79.40
2023-03-16T09:27:53.808Z,80.40
2023-03-16T09:30:23.290Z,81.90
2023-03-16T09:32:51.453Z,79.40
2023-03-16T09:35:19.556Z,79.10
2023-03-16T09:38:04.816Z,79.20
2023-03-16T09:40:33.592Z,79.20
2023-03-16T09:43:30.253Z,79.20
2023-03-16T09:46:07.592Z,79.50
2023-03-16T09:48:38.982Z,79.50
2023-03-16T09:51:09.609Z,79.50
2023-03-16T09:53:40.098Z,79.60
2023-03-16T09:56:11.737Z,79.80
2023-03-16T09:58:39.549Z,79.80
2023-03-16T10:01:15.823Z,79.40
2023-03-16T10:04:02.874Z,79.50
2023-03-16T10:06:31.157Z,79.90
2023-03-16T10:09:08.090Z,79.60
2023-03-16T10:11:41.214Z,79.70
2023-03-16T10:14:19.468Z,79.40
2023-03-16T10:16:52.750Z,79.40
2023-03-16T10:19:27.096Z,79.20
2023-03-16T10:22:00.178Z,79.00
2023-03-16T10:24:45.227Z,79.00
2023-03-16T10:27:21.402Z,78.80
2023-03-16T10:29:49.636Z,78.50
2023-03-16T10:32:19.914Z,77.90
2023-03-16T10:34:54.135Z,78.00
2023-03-16T10:37:22.489Z,77.20
2023-03-16T10:39:50.605Z,76.90
2023-03-16T10:42:20.295Z,76.90
2023-03-16T10:44:48.507Z,76.90
2023-03-16T10:47:24.021Z,75.80
2023-03-16T10:49:53.365Z,75.30
2023-03-16T10:52:24.877Z,75.60
2023-03-16T10:54:55.982Z,75.10
2023-03-16T10:57:28.529Z,74.20
2023-03-16T11:00:00.385Z,74.30
2023-03-16T11:02:35.664Z,74.90
2023-03-16T11:05:15.978Z,73.80
2023-03-16T11:07:49.876Z,73.00
2023-03-16T11:10:28.910Z,72.70
2023-03-16T11:13:02.602Z,72.00
2023-03-16T11:15:39.752Z,72.20
2023-03-16T11:18:17.945Z,71.90
2023-03-16T11:20:47.142Z,71.90
2023-03-16T11:23:18.587Z,72.20
2023-03-16T11:25:50.022Z,71.40
2023-03-16T11:28:24.850Z,71.10
2023-03-16T11:31:01.332Z,71.00
2023-03-16T11:33:35.954Z,70.80
2023-03-16T11:36:17.928Z,70.70
2023-03-16T14:18:48.446Z,57.40
2023-03-16T14:21:18.839Z,57.20
2023-03-16T14:23:49.170Z,58.40
2023-03-16T14:26:19.276Z,57.50
2023-03-16T14:28:57.430Z,56.90
2023-03-16T14:31:35.367Z,56.40
2023-03-16T14:34:08.617Z,55.20
2023-03-16T14:36:38.370Z,56.80
2023-03-16T14:39:14.789Z,56.70
2023-03-16T14:41:44.876Z,55.60
2023-03-16T14:44:23.161Z,55.80
2023-03-16T14:46:51.815Z,54.50
2023-03-16T14:49:24.256Z,54.50
2023-03-16T14:51:54.493Z,53.70
2023-03-16T14:54:23.755Z,53.30
2023-03-16T14:56:53.601Z,53.30
2023-03-16T14:59:23.287Z,53.70
2023-03-16T15:01:53.467Z,53.60
2023-03-16T15:04:27.994Z,52.90
2023-03-16T15:06:56.068Z,52.90
2023-03-16T15:09:35.107Z,52.60
2023-03-16T15:12:03.253Z,51.50
2023-03-16T15:14:49.363Z,51.50
2023-03-16T15:17:17.547Z,51.80
2023-03-16T15:19:46.927Z,50.60
2023-03-16T15:22:15.877Z,50.30
2023-03-16T15:24:44.040Z,51.00
2023-03-16T15:27:21.054Z,50.90
2023-03-16T15:29:49.296Z,50.60
2023-03-16T15:32:17.208Z,52.10
2023-03-16T15:34:47.912Z,51.90
2023-03-16T15:37:19.890Z,51.00
2023-03-16T15:39:48.637Z,51.30
2023-03-16T15:42:17.886Z,51.60
2023-03-16T15:44:47.142Z,51.20
2023-03-16T15:47:16.402Z,50.40
2023-03-16T15:49:48.096Z,49.50
2023-03-16T15:52:27.983Z,49.30
2023-03-16T15:55:01.445Z,48.00
2023-03-16T15:57:30.489Z,48.70
2023-03-16T16:00:00.055Z,48.80
2023-03-16T16:02:31.095Z,48.60
2023-03-16T16:04:59.499Z,47.70
2023-03-16T16:07:28.849Z,47.60
2023-03-16T16:09:56.831Z,47.70
2023-03-16T16:12:27.177Z,47.80
2023-03-16T16:14:56.392Z,47.30
2023-03-16T16:17:42.591Z,47.40
2023-03-16T16:20:21.461Z,47.90
2023-03-16T16:22:52.900Z,47.40
2023-03-16T16:25:23.903Z,47.60
2023-03-16T16:27:52.364Z,47.80
2023-03-16T16:30:26.053Z,48.20
2023-03-16T16:32:55.835Z,47.90
2023-03-16T16:35:28.795Z,48.10
2023-03-16T16:37:58.526Z,48.20
2023-03-16T16:40:37.280Z,47.80
2023-03-16T16:43:08.308Z,47.00
2023-03-16T16:45:36.205Z,47.60
2023-03-16T16:48:21.935Z,47.80
2023-03-16T16:50:49.802Z,47.60
2023-03-16T16:53:21.377Z,47.80
2023-03-16T16:55:49.504Z,48.00
2023-03-16T16:58:24.127Z,48.40
2023-03-16T17:00:55.536Z,48.60
2023-03-16T17:03:25.680Z,48.80
2023-03-16T17:05:56.283Z,48.90
2023-03-16T17:08:25.754Z,49.10
2023-03-16T17:10:54.386Z,49.30
2023-03-16T17:13:28.175Z,49.40
2023-03-16T17:15:56.278Z,49.10
2023-03-16T17:18:24.387Z,49.30
2023-03-16T17:20:52.422Z,49.60
2023-03-16T17:23:29.566Z,49.50
2023-03-16T17:25:59.599Z,49.40
2023-03-16T17:28:29.653Z,50.00
2023-03-16T17:30:57.955Z,49.90
2023-03-16T17:33:28.444Z,50.00
2023-03-16T17:35:56.516Z,50.20
2023-03-16T17:38:27.337Z,50.20
2023-03-16T17:40:56.242Z,50.30
2023-03-16T17:43:24.702Z,50.50
2023-03-16T17:45:53.280Z,50.90
2023-03-16T17:48:22.605Z,50.70
2023-03-16T17:50:51.415Z,51.10
2023-03-16T17:53:21.617Z,51.10
2023-03-16T17:55:51.287Z,51.30
2023-03-16T17:58:26.667Z,51.10
2023-03-16T18:00:55.156Z,51.40
2023-03-16T18:03:27.187Z,51.80
2023-03-16T18:05:56.129Z,52.10
2023-03-16T18:08:26.109Z,52.10
2023-03-16T18:10:58.907Z,52.30
2023-03-16T18:13:29.671Z,52.90
2023-03-16T18:15:58.574Z,53.30
2023-03-16T18:18:28.492Z,53.40
2023-03-16T18:20:59.629Z,53.30
2023-03-16T18:23:29.767Z,53.50
2023-03-16T18:26:02.102Z,53.80
2023-03-16T18:28:30.699Z,54.00
2023-03-16T18:30:59.931Z,54.40
2023-03-16T18:33:31.168Z,54.50
2023-03-16T18:36:00.737Z,54.60
2023-03-16T18:38:34.706Z,54.70
2023-03-16T18:41:16.584Z,54.90
2023-03-16T18:43:45.699Z,55.20
2023-03-16T18:46:24.156Z,55.30
2023-03-16T18:48:53.962Z,55.90
2023-03-16T18:51:22.928Z,56.30
2023-03-16T18:53:51.321Z,57.10
2023-03-16T18:56:22.694Z,57.10
2023-03-16T18:58:51.382Z,57.10
2023-03-16T19:01:25.119Z,57.40
2023-03-16T19:03:54.115Z,57.60
2023-03-16T19:06:27.244Z,57.70
2023-03-16T19:08:55.916Z,58.30
2023-03-16T19:11:25.241Z,58.30
2023-03-16T19:13:54.736Z,58.50
2023-03-16T19:16:23.430Z,58.90
2023-03-16T19:18:51.383Z,59.20
2023-03-16T19:21:22.964Z,59.30
2023-03-16T19:23:56.659Z,59.30
2023-03-16T19:26:26.104Z,59.60
2023-03-16T19:28:57.273Z,59.20
2023-03-16T19:31:27.771Z,59.60
2023-03-16T19:33:58.409Z,59.80
2023-03-16T19:36:28.454Z,59.60
2023-03-16T19:38:56.842Z,59.70
2023-03-16T19:41:29.984Z,59.50
2023-03-16T19:44:00.358Z,60.00
2023-03-16T19:46:29.240Z,60.20
2023-03-16T19:48:57.731Z,60.00
2023-03-16T19:51:28.987Z,60.00
2023-03-16T19:53:57.083Z,60.00
2023-03-16T19:56:26.971Z,60.40
2023-03-16T19:58:55.555Z,60.20
2023-03-16T20:01:27.094Z,60.60
2023-03-16T20:03:55.155Z,60.50
2023-03-16T20:06:24.676Z,60.30
2023-03-16T20:08:52.955Z,60.40
2023-03-16T20:11:27.162Z,60.30
2023-03-16T20:13:58.255Z,60.20
2023-03-16T20:16:29.900Z,60.30
2023-03-16T20:18:59.377Z,60.40
2023-03-16T20:21:27.984Z,60.30
2023-03-16T20:23:56.463Z,60.50
2023-03-16T20:26:27.314Z,60.60
2023-03-16T20:28:56.564Z,60.80
2023-03-16T20:31:27.195Z,60.80
2023-03-16T20:33:58.625Z,60.90
2023-03-16T20:36:27.345Z,61.10
2023-03-16T20:38:55.259Z,61.00
2023-03-16T20:41:26.781Z,60.60
2023-03-16T20:43:56.984Z,61.20
2023-03-16T20:46:27.909Z,61.30
2023-03-16T20:48:56.028Z,61.50
2023-03-16T20:51:24.569Z,61.30
2023-03-16T20:53:52.430Z,61.60
2023-03-16T20:56:21.991Z,61.50
2023-03-16T20:58:51.252Z,61.60
2023-03-16T21:01:22.103Z,61.90
2023-03-16T21:03:52.099Z,61.60
2023-03-16T21:06:23.578Z,61.60
2023-03-16T21:08:52.870Z,61.60
2023-03-16T21:11:23.812Z,61.70
2023-03-16T21:13:52.315Z,61.80
2023-03-16T21:16:22.144Z,61.70
2023-03-16T21:18:52.783Z,62.20
2023-03-16T21:21:21.646Z,62.00
2023-03-16T21:23:49.564Z,62.30
2023-03-16T21:26:20.235Z,62.20
2023-03-16T21:28:54.886Z,62.60
2023-03-16T21:31:25.874Z,62.60
2023-03-16T21:33:55.015Z,62.70
2023-03-16T21:36:26.164Z,62.70
2023-03-16T21:38:55.048Z,62.70
2023-03-16T21:41:23.007Z,62.80
2023-03-16T21:43:51.656Z,62.60
2023-03-16T21:46:22.178Z,62.70
2023-03-16T21:48:53.503Z,62.90
2023-03-16T21:51:24.819Z,63.00
2023-03-16T21:53:53.433Z,63.00
2023-03-16T21:56:25.385Z,62.80
2023-03-16T21:58:54.411Z,62.90
2023-03-16T22:01:24.682Z,62.90
2023-03-16T22:03:57.432Z,62.80
2023-03-16T22:06:27.781Z,62.80
2023-03-16T22:08:56.315Z,62.90
2023-03-16T22:11:27.686Z,62.80
2023-03-16T22:13:57.042Z,63.00
2023-03-16T22:16:27.836Z,62.80
2023-03-16T22:18:58.584Z,62.70
2023-03-16T22:21:30.432Z,62.90
2023-03-16T22:23:59.547Z,63.00
2023-03-16T22:26:28.664Z,63.00
2023-03-16T22:28:57.145Z,62.90
2023-03-16T22:31:31.882Z,63.20
2023-03-16T22:34:02.001Z,63.10
2023-03-16T22:36:33.993Z,63.20
2023-03-16T22:39:05.329Z,63.00
2023-03-16T22:41:33.631Z,63.30
2023-03-16T22:44:02.144Z,63.30
2023-03-16T22:46:31.655Z,63.60
2023-03-16T22:49:01.235Z,63.20
2023-03-16T22:51:32.438Z,66.10
2023-03-16T22:54:03.342Z,63.60
2023-03-16T22:56:32.377Z,63.60
2023-03-16T22:59:03.281Z,64.70
2023-03-16T23:01:36.162Z,64.00
2023-03-16T23:04:14.507Z,63.90
2023-03-16T23:06:43.813Z,64.10
2023-03-16T23:09:15.302Z,63.90
2023-03-16T23:11:45.060Z,64.00
2023-03-16T23:14:14.670Z,64.00
2023-03-16T23:16:42.867Z,64.20
2023-03-16T23:19:25.118Z,64.30
2023-03-16T23:21:54.810Z,64.90
2023-03-16T23:24:23.022Z,64.60
2023-03-16T23:26:51.980Z,64.50
2023-03-16T23:29:20.863Z,64.60
2023-03-16T23:31:49.072Z,64.60
2023-03-16T23:34:20.725Z,64.50
2023-03-16T23:36:49.599Z,64.80
2023-03-16T23:39:17.535Z,64.80
2023-03-16T23:41:48.459Z,64.60
2023-03-16T23:44:18.695Z,65.00
2023-03-16T23:46:47.309Z,65.10
2023-03-16T23:49:21.528Z,65.00
2023-03-16T23:51:50.146Z,65.20
2023-03-16T23:54:21.816Z,65.90
2023-03-16T23:56:49.821Z,65.10
2023-03-16T23:59:17.740Z,64.90
